Archival Weather

Chicago O'Hare International

Chicago, Illinois (KORD)

Report from: Wednesday, January 25, 2023 8:03 AM CST
Current time: Sunday, February 5, 2023 11:38 PM CST

Current weather
Weather history
Weather forecast

Present weatherLight snow, mist
Temperature0.6°C (33.1°F)
Wind chill-3.6°C (25.5°F)
Dew point-1.1°C (30.0°F)
Winds 8 kts (4.1 m/s, 9.2 mph) Northeast (50°)
Visibility0.8 mi. (1.2 km)
Clouds Ceiling: Overcast 500 ft. (152 m)
Altimeter29.76 in.Hg (1008 mB)
Precipitiation0.01 in. (0 mm)
Relative humidity88 %
Density altitude-1,485 ft. (-453 m)
Remarks Automated weather observing station with precipitation discriminator
Flight conditions Low Instrument Meteorological Conditions
Raw dataKORD 251403Z 05008KT 3/4SM R10L/4500VP6000FT -SN BR OVC005 01/M01 A2976 RMK AO2 P0001 T00061011
An error has occurred. This application may no longer respond until reloaded. Reload 🗙